Pagrindinis puslapis
METAR-TAF:

METAR-TAF

Oro uostai :

São Pedro da Aldeia, Rio de Janeiro, Brazilija

platuma: 22-49S, ilguma: 042-06W, Aukštis: 10 m

Dabartinis oras

Ataskaita buvo paskelbta 1 valandą ir 56 minutes, ne 21:00 UTC
Vėjas 4 kt iš Šiaurės Rytų
Temperatūra 20°C
Drėgmė 88%
Slėgis 1017 hPa
Matomumas 10 km arba daugiau
nėra debesų žemiau 1500 m ir nėra kamuolinių lietaus debesų

METAR: SBES 302100Z 05004KT CAVOK 20/18 Q1017

Laikas: 19:56 (22:56 UTC)


TAF: trūkstamas

Orai ataskaitas ir orų prognozės (METAR, TAF).

turimą stotys yra geltonos ir raudonos taškus žemėlapyje.

Perkelti pele per norėdami pamatyti stoties vardą.

Tada spustelėkite, norėdami matyti oro stebėjimo ir prognozės.

Norėdami pakeisti žemėlapį: spustelėkite ant žalios mygtukų su juodo kryžiaus žemyn,; žalią mygtuką su brūkšneliu, jei norite nutolinti; arba žalių rodyklių gretimoms žemėlapius.


METAR-TAF: